Time;durP1;ratioP1;P1;durP2;ratioP2;P2;SDS_P1;SDS_P2;PMS_P1;PMS_P2;Temp;Humidity;BMP_temperature;BMP_pressure;BME280_temperature;BME280_humidity;BME280_pressure;Samples;Min_cycle;Max_cycle;Signal;HPM_P1;HPM_P2
2021/11/07 00:00:18;;;;;;;5.50;4.88;;;;;22.00;100720.00;;;;2077986;28;20248;-48
2021/11/07 00:03:47;;;;;;;4.93;4.43;;;;;22.00;100723.00;;;;2078332;28;20867;-47
2021/11/07 00:04:55;;;;;;;5.20;4.70;;;;;22.00;100713.00;;;;2078649;28;20216;-47
2021/11/07 00:06:06;;;;;;;5.18;4.68;;;;;22.00;100711.00;;;;2078305;28;20220;-48
2021/11/07 00:08:27;;;;;;;4.93;4.45;;;;;21.90;100717.00;;;;2070399;28;20202;-48
2021/11/07 00:09:31;;;;;;;4.80;4.22;;;;;21.90;100707.00;;;;2075098;28;20213;-46
2021/11/07 00:11:44;;;;;;;5.10;4.60;;;;;21.90;100713.00;;;;2078316;28;20237;-48
2021/11/07 00:12:47;;;;;;;5.03;4.30;;;;;21.90;100714.00;;;;2078344;28;20213;-50
2021/11/07 00:13:49;;;;;;;4.65;4.25;;;;;21.90;100712.00;;;;2072349;28;20210;-47
2021/11/07 00:14:51;;;;;;;5.65;4.03;;;;;21.90;100716.00;;;;2070452;28;20218;-47
2021/11/07 00:16:03;;;;;;;5.00;4.50;;;;;21.90;100716.00;;;;2070284;28;20280;-47
2021/11/07 00:17:04;;;;;;;5.38;4.35;;;;;21.90;100710.00;;;;2076091;28;20219;-47
2021/11/07 00:18:08;;;;;;;4.53;4.10;;;;;21.90;100714.00;;;;2078281;28;20240;-47
2021/11/07 00:19:13;;;;;;;4.95;4.30;;;;;21.90;100707.00;;;;2077378;28;20210;-49
2021/11/07 00:20:27;;;;;;;9.20;4.40;;;;;21.90;100714.00;;;;2078126;28;20216;-48
2021/11/07 00:21:29;;;;;;;4.68;4.25;;;;;21.90;100714.00;;;;2077688;28;20217;-48
2021/11/07 00:23:56;;;;;;;4.78;4.20;;;;;21.90;100702.00;;;;2077306;28;20227;-48
2021/11/07 00:25:16;;;;;;;4.70;3.92;;;;;21.90;100720.00;;;;2078173;28;20627;-48
2021/11/07 00:29:47;;;;;;;4.40;4.00;;;;;21.90;100710.00;;;;2069271;28;20218;-47
2021/11/07 00:30:58;;;;;;;3.50;3.20;;;;;21.80;100712.00;;;;2075592;28;20217;-47
2021/11/07 00:37:03;;;;;;;3.78;3.22;;;;;21.80;100708.00;;;;2073338;28;20210;-47
2021/11/07 00:38:08;;;;;;;3.80;3.40;;;;;21.80;100697.00;;;;2076653;28;20214;-47
2021/11/07 00:45:03;;;;;;;3.07;2.73;;;;;21.80;100710.00;;;;2070050;28;20561;-48
2021/11/07 00:46:17;;;;;;;4.15;3.75;;;;;21.80;100702.00;;;;2070220;28;20237;-51
2021/11/07 00:48:39;;;;;;;4.30;3.67;;;;;21.80;100704.00;;;;2075219;28;20217;-47
2021/11/07 00:49:46;;;;;;;4.35;3.63;;;;;21.80;100701.00;;;;2076873;28;20592;-47
2021/11/07 00:55:14;;;;;;;3.65;3.35;;;;;21.80;100690.00;;;;2075834;28;20214;-47
2021/11/07 00:57:20;;;;;;;4.63;3.50;;;;;21.80;100685.00;;;;2078939;28;20661;-48
2021/11/07 00:58:32;;;;;;;3.35;3.05;;;;;21.80;100687.00;;;;2078915;28;20213;-47
2021/11/07 00:59:46;;;;;;;5.35;3.25;;;;;21.70;100680.00;;;;2078006;28;20217;-47
2021/11/07 01:00:59;;;;;;;4.15;3.25;;;;;21.80;100680.00;;;;2078091;28;20229;-49
2021/11/07 01:02:17;;;;;;;4.55;3.22;;;;;21.80;100682.00;;;;2078985;28;20296;-48
2021/11/07 01:03:19;;;;;;;3.38;2.60;;;;;21.70;100678.00;;;;2079051;28;20205;-47
2021/11/07 01:04:20;;;;;;;3.58;2.80;;;;;21.80;100670.00;;;;2079215;28;20212;-50
2021/11/07 01:05:23;;;;;;;4.10;3.10;;;;;21.70;100660.00;;;;2079862;28;20228;-48
2021/11/07 01:06:23;;;;;;;3.42;3.13;;;;;21.70;100661.00;;;;2079182;28;20240;-49
2021/11/07 01:07:24;;;;;;;2.90;2.40;;;;;21.70;100658.00;;;;2071403;28;20221;-47
2021/11/07 01:08:24;;;;;;;4.30;3.03;;;;;21.80;100657.00;;;;2072510;28;20658;-50
2021/11/07 01:09:25;;;;;;;2.50;2.30;;;;;21.80;100665.00;;;;2073005;28;20214;-48
2021/11/07 01:10:26;;;;;;;2.77;2.57;;;;;21.70;100658.00;;;;2071786;28;20210;-51
2021/11/07 01:11:26;;;;;;;3.10;2.80;;;;;21.70;100669.00;;;;2071583;28;20762;-47
2021/11/07 01:12:27;;;;;;;3.30;2.97;;;;;21.70;100654.00;;;;2070229;28;20221;-48
2021/11/07 01:13:28;;;;;;;3.00;2.80;;;;;21.70;100654.00;;;;2071567;28;20234;-47
2021/11/07 01:14:28;;;;;;;2.70;2.50;;;;;21.70;100655.00;;;;2071566;28;20214;-47
2021/11/07 01:15:31;;;;;;;3.50;2.53;;;;;21.70;100653.00;;;;2071585;28;20256;-49
2021/11/07 01:16:33;;;;;;;3.08;2.70;;;;;21.70;100646.00;;;;2071658;28;20214;-47
2021/11/07 01:17:33;;;;;;;2.60;2.40;;;;;21.70;100649.00;;;;2071456;28;20210;-48
2021/11/07 01:18:34;;;;;;;2.77;2.37;;;;;21.70;100636.00;;;;2071296;28;20218;-47
2021/11/07 01:19:35;;;;;;;3.50;2.77;;;;;21.70;100655.00;;;;2070707;28;20225;-50
2021/11/07 01:20:35;;;;;;;2.87;2.40;;;;;21.70;100648.00;;;;2071796;28;20276;-47
2021/11/07 01:21:39;;;;;;;3.97;2.77;;;;;21.70;100649.00;;;;2075285;28;20518;-48
2021/11/07 01:24:05;;;;;;;2.33;2.13;;;;;21.70;100641.00;;;;2071490;28;20214;-47
2021/11/07 01:25:03;;;;;;;2.78;2.58;;;;;21.70;100646.00;;;;2076186;28;20275;-47
2021/11/07 01:26:10;;;;;;;5.90;2.67;;;;;21.70;100645.00;;;;2079833;28;20339;-48
2021/11/07 01:27:20;;;;;;;3.08;2.50;;;;;21.70;100638.00;;;;2079854;28;20225;-49
2021/11/07 01:28:23;;;;;;;2.50;2.20;;;;;21.70;100641.00;;;;2079005;28;20589;-49
2021/11/07 01:29:25;;;;;;;4.75;3.08;;;;;21.70;100632.00;;;;2078749;28;20213;-48
2021/11/07 01:30:28;;;;;;;3.03;2.60;;;;;21.70;100628.00;;;;2079310;28;20237;-49
2021/11/07 01:31:29;;;;;;;3.00;2.35;;;;;21.70;100631.00;;;;2079134;28;20689;-47
2021/11/07 01:32:36;;;;;;;3.17;2.10;;;;;21.70;100645.00;;;;2079256;28;20206;-48
2021/11/07 01:33:36;;;;;;;3.00;2.50;;;;;21.70;100647.00;;;;2079614;28;20252;-47
2021/11/07 01:35:25;;;;;;;4.37;2.60;;;;;21.70;100655.00;;;;2079475;28;20269;-48
2021/11/07 01:37:20;;;;;;;2.33;2.10;;;;;21.70;100647.00;;;;2073105;28;20210;-47
2021/11/07 01:38:27;;;;;;;2.75;2.55;;;;;21.70;100630.00;;;;2074779;28;20591;-47
2021/11/07 01:40:09;;;;;;;4.53;2.45;;;;;21.70;100637.00;;;;2072283;28;20218;-48
2021/11/07 01:42:09;;;;;;;2.50;2.20;;;;;21.70;100655.00;;;;2079641;28;20218;-47
2021/11/07 01:43:10;;;;;;;2.95;2.55;;;;;21.70;100646.00;;;;2074193;28;20896;-47
2021/11/07 01:44:11;;;;;;;2.22;2.03;;;;;21.60;100638.00;;;;2071400;28;20222;-47
2021/11/07 01:45:29;;;;;;;2.47;2.27;;;;;21.60;100633.00;;;;2071236;28;20214;-47
2021/11/07 01:46:31;;;;;;;2.58;2.00;;;;;21.60;100633.00;;;;2076434;28;20217;-47
2021/11/07 01:47:33;;;;;;;2.35;2.15;;;;;21.70;100635.00;;;;2079146;28;20223;-48
2021/11/07 01:48:44;;;;;;;3.40;2.63;;;;;21.70;100636.00;;;;2075551;28;20221;-48
2021/11/07 01:49:46;;;;;;;2.75;2.55;;;;;21.60;100632.00;;;;2071202;28;20252;-48
2021/11/07 01:50:52;;;;;;;3.00;2.50;;;;;21.60;100625.00;;;;2071138;28;20240;-48
2021/11/07 01:51:59;;;;;;;2.80;2.17;;;;;21.60;100624.00;;;;2071036;28;20686;-47
2021/11/07 01:53:08;;;;;;;2.95;2.60;;;;;21.60;100621.00;;;;2071190;28;20285;-47
2021/11/07 01:54:20;;;;;;;2.80;2.50;;;;;21.60;100625.00;;;;2071131;28;20222;-47
2021/11/07 01:55:21;;;;;;;2.40;2.20;;;;;21.60;100620.00;;;;2070917;28;20289;-49
2021/11/07 01:56:21;;;;;;;2.70;2.20;;;;;21.60;100607.00;;;;2070983;28;20389;-47
2021/11/07 01:57:26;;;;;;;3.07;2.47;;;;;21.60;100617.00;;;;2071248;28;20215;-47
2021/11/07 01:58:27;;;;;;;2.75;1.98;;;;;21.60;100616.00;;;;2071040;28;20260;-47
2021/11/07 01:59:27;;;;;;;2.30;2.10;;;;;21.60;100616.00;;;;2070160;28;20209;-47
2021/11/07 02:00:29;;;;;;;2.40;2.20;;;;;21.60;100612.00;;;;2070490;28;20558;-49
2021/11/07 02:01:29;;;;;;;2.80;2.35;;;;;21.60;100611.00;;;;2070635;28;20257;-47
2021/11/07 02:02:31;;;;;;;3.07;2.50;;;;;21.60;100608.00;;;;2069588;28;20285;-47
2021/11/07 02:03:32;;;;;;;2.58;2.28;;;;;21.60;100600.00;;;;2075212;28;20284;-47
2021/11/07 02:04:33;;;;;;;2.60;2.40;;;;;21.60;100601.00;;;;2079065;28;20210;-48
2021/11/07 02:05:33;;;;;;;2.33;2.10;;;;;21.60;100594.00;;;;2078438;28;20213;-47
2021/11/07 02:06:33;;;;;;;2.67;2.47;;;;;21.60;100591.00;;;;2077202;28;20247;-47
2021/11/07 02:07:34;;;;;;;2.80;2.40;;;;;21.60;100602.00;;;;2073295;28;20689;-47
2021/11/07 02:08:34;;;;;;;2.43;2.20;;;;;21.60;100604.00;;;;2074743;28;20229;-48
2021/11/07 02:09:35;;;;;;;2.23;2.03;;;;;21.60;100587.00;;;;2070371;28;20554;-47
2021/11/07 02:10:36;;;;;;;3.60;2.20;;;;;21.60;100595.00;;;;2070181;28;20218;-47
2021/11/07 02:11:37;;;;;;;2.60;1.80;;;;;21.60;100599.00;;;;2070484;28;20910;-48
2021/11/07 02:12:40;;;;;;;2.73;2.10;;;;;21.60;100593.00;;;;2070760;28;20229;-47
2021/11/07 02:13:40;;;;;;;2.30;2.10;;;;;21.60;100548.00;;;;2071169;28;20241;-46
2021/11/07 02:14:41;;;;;;;2.60;2.40;;;;;21.60;100587.00;;;;2071130;28;20687;-48
2021/11/07 02:15:41;;;;;;;2.57;2.37;;;;;21.60;100574.00;;;;2071198;28;20214;-47
2021/11/07 02:16:41;;;;;;;2.73;2.30;;;;;21.50;100576.00;;;;2071084;28;20210;-48
2021/11/07 02:17:43;;;;;;;2.03;1.80;;;;;21.60;100569.00;;;;2070910;28;20879;-46
2021/11/07 02:18:43;;;;;;;2.50;2.30;;;;;21.60;100565.00;;;;2070511;28;20210;-46
2021/11/07 02:19:45;;;;;;;2.40;2.10;;;;;21.60;100575.00;;;;2070803;28;20877;-47
2021/11/07 02:20:46;;;;;;;2.22;2.03;;;;;21.60;100567.00;;;;2067538;28;20465;-49
2021/11/07 02:21:47;;;;;;;2.37;2.13;;;;;21.60;100568.00;;;;2071164;28;20226;-48
2021/11/07 02:22:47;;;;;;;2.83;2.17;;;;;21.50;100566.00;;;;2070624;28;20674;-48
2021/11/07 02:23:48;;;;;;;2.57;2.30;;;;;21.50;100564.00;;;;2071068;28;20214;-48
2021/11/07 02:24:48;;;;;;;2.40;2.13;;;;;21.50;100549.00;;;;2070846;28;20217;-47
2021/11/07 02:25:50;;;;;;;2.37;2.17;;;;;21.50;100568.00;;;;2071125;28;20264;-49
2021/11/07 02:27:00;;;;;;;3.33;2.20;;;;;21.50;100564.00;;;;2075472;28;20960;-48
2021/11/07 02:28:02;;;;;;;2.10;1.90;;;;;21.60;100564.00;;;;2078908;28;20218;-47
2021/11/07 02:29:02;;;;;;;1.85;1.73;;;;;21.50;100555.00;;;;2078268;28;20280;-47
2021/11/07 02:30:05;;;;;;;2.40;2.20;;;;;21.60;100573.00;;;;2079210;28;20205;-47
2021/11/07 02:31:06;;;;;;;2.50;1.95;;;;;21.50;100544.00;;;;2075023;28;20210;-48
2021/11/07 02:32:07;;;;;;;2.30;2.10;;;;;21.50;100544.00;;;;2070890;28;20223;-49
2021/11/07 02:33:07;;;;;;;2.60;2.40;;;;;21.50;100556.00;;;;2070883;28;20237;-49
2021/11/07 02:34:07;;;;;;;2.63;1.97;;;;;21.50;100544.00;;;;2070707;28;20551;-47
2021/11/07 02:35:08;;;;;;;2.87;2.27;;;;;21.50;100550.00;;;;2070910;28;20901;-48
2021/11/07 02:36:13;;;;;;;2.30;2.10;;;;;21.50;100532.00;;;;2070984;28;20731;-47
2021/11/07 02:37:14;;;;;;;2.47;2.20;;;;;21.50;100554.00;;;;2074625;28;20206;-48
2021/11/07 02:38:14;;;;;;;2.30;2.10;;;;;21.50;100550.00;;;;2073680;28;20781;-47
2021/11/07 02:39:16;;;;;;;2.50;2.30;;;;;21.50;100552.00;;;;2072612;28;20313;-48
2021/11/07 02:40:17;;;;;;;2.17;1.98;;;;;21.50;100527.00;;;;2070987;28;20218;-48
2021/11/07 02:41:18;;;;;;;2.35;1.98;;;;;21.50;100549.00;;;;2070974;28;20213;-48
2021/11/07 02:42:18;;;;;;;2.10;1.90;;;;;21.50;100545.00;;;;2070856;28;20229;-48
2021/11/07 02:43:18;;;;;;;3.30;2.40;;;;;21.50;100531.00;;;;2069429;28;20218;-48
2021/11/07 02:44:36;;;;;;;2.50;2.30;;;;;21.50;100541.00;;;;2070949;28;20226;-48
2021/11/07 02:45:36;;;;;;;2.50;2.05;;;;;21.50;100539.00;;;;2076112;28;20224;-47
2021/11/07 02:46:37;;;;;;;2.40;2.20;;;;;21.50;100538.00;;;;2078593;28;20709;-47
2021/11/07 02:47:37;;;;;;;2.47;2.27;;;;;21.50;100552.00;;;;2078399;28;20283;-47
2021/11/07 02:48:37;;;;;;;2.60;2.40;;;;;21.50;100535.00;;;;2078442;28;20217;-48
2021/11/07 02:49:38;;;;;;;2.13;1.93;;;;;21.50;100531.00;;;;2077210;28;20217;-47
2021/11/07 02:50:38;;;;;;;3.03;2.30;;;;;21.50;100532.00;;;;2069915;28;20225;-47
2021/11/07 02:51:39;;;;;;;2.70;2.13;;;;;21.50;100538.00;;;;2069160;28;20297;-48
2021/11/07 02:52:39;;;;;;;2.87;1.73;;;;;21.50;100524.00;;;;2075629;28;20575;-47
2021/11/07 02:53:40;;;;;;;2.63;1.87;;;;;21.50;100528.00;;;;2078251;28;20535;-47
2021/11/07 02:54:40;;;;;;;2.43;1.90;;;;;21.50;100535.00;;;;2078062;28;20271;-48
2021/11/07 02:55:42;;;;;;;2.50;1.80;;;;;21.50;100530.00;;;;2078257;28;20498;-47
2021/11/07 02:56:42;;;;;;;2.40;2.20;;;;;21.50;100524.00;;;;2079022;28;20578;-47
2021/11/07 02:57:46;;;;;;;2.10;1.93;;;;;21.50;100523.00;;;;2078456;28;20209;-47
2021/11/07 02:58:47;;;;;;;2.00;1.80;;;;;21.50;100518.00;;;;2070639;28;20222;-49
2021/11/07 02:59:53;;;;;;;2.30;1.97;;;;;21.30;100529.00;;;;2069098;28;20377;-47
2021/11/07 03:00:54;;;;;;;2.35;2.15;;;;;21.50;100517.00;;;;2069921;28;20214;-50
2021/11/07 03:01:55;;;;;;;2.20;2.00;;;;;21.50;100524.00;;;;2073406;28;20228;-47
2021/11/07 03:02:56;;;;;;;2.90;1.60;;;;;21.40;100531.00;;;;2078219;28;20268;-47
2021/11/07 03:04:02;;;;;;;2.30;2.10;;;;;21.50;100506.00;;;;2078165;28;20474;-47
2021/11/07 03:05:09;;;;;;;1.92;1.83;;;;;21.50;100504.00;;;;2078711;28;20531;-52
2021/11/07 03:06:10;;;;;;;3.55;2.50;;;;;21.50;100507.00;;;;2079098;28;20579;-48
2021/11/07 03:07:10;;;;;;;4.60;2.27;;;;;21.50;100513.00;;;;2075410;28;20214;-49
2021/11/07 03:08:11;;;;;;;2.37;1.90;;;;;21.50;100507.00;;;;2073758;28;20218;-47
2021/11/07 03:09:19;;;;;;;2.13;2.03;;;;;21.40;100505.00;;;;2072427;28;20305;-48
2021/11/07 03:10:21;;;;;;;2.08;1.88;;;;;21.40;100491.00;;;;2067712;28;20210;-48
2021/11/07 03:11:22;;;;;;;2.72;2.17;;;;;21.50;100489.00;;;;2070102;28;20703;-47
2021/11/07 03:12:22;;;;;;;2.70;1.80;;;;;21.50;100478.00;;;;2070186;28;20570;-47
2021/11/07 03:13:23;;;;;;;2.10;1.90;;;;;21.40;100483.00;;;;2069917;28;20206;-47
2021/11/07 03:14:34;;;;;;;2.67;2.27;;;;;21.40;100493.00;;;;2069888;28;20805;-47
2021/11/07 03:15:35;;;;;;;1.83;1.70;;;;;21.30;100486.00;;;;2069842;28;20757;-48
2021/11/07 03:16:35;;;;;;;2.20;2.00;;;;;21.40;100504.00;;;;2068357;28;20237;-48
2021/11/07 03:17:36;;;;;;;2.00;1.80;;;;;21.40;100495.00;;;;2069908;28;20257;-48
2021/11/07 03:18:37;;;;;;;2.13;1.97;;;;;21.40;100491.00;;;;2069712;28;20214;-49
2021/11/07 03:19:37;;;;;;;2.67;2.00;;;;;21.40;100493.00;;;;2069357;28;20222;-47
2021/11/07 03:20:39;;;;;;;1.90;1.70;;;;;21.40;100482.00;;;;2070232;28;20275;-47
2021/11/07 03:21:40;;;;;;;1.70;1.60;;;;;21.40;100479.00;;;;2069849;28;20258;-48
2021/11/07 03:22:40;;;;;;;2.38;2.17;;;;;21.40;100483.00;;;;2071509;28;20206;-45
2021/11/07 03:23:43;;;;;;;3.03;2.10;;;;;21.40;100481.00;;;;2070744;28;20209;-45
2021/11/07 03:24:44;;;;;;;2.00;1.90;;;;;21.40;100490.00;;;;2070336;28;20222;-45
2021/11/07 03:25:50;;;;;;;3.97;2.13;;;;;21.40;100495.00;;;;2066201;28;20242;-45
2021/11/07 03:26:51;;;;;;;2.00;1.80;;;;;21.40;100501.00;;;;2074391;28;20205;-45
2021/11/07 03:27:51;;;;;;;1.90;1.80;;;;;21.40;100489.00;;;;2077698;28;20313;-46
2021/11/07 03:28:57;;;;;;;2.10;1.90;;;;;21.40;100479.00;;;;2077204;28;20259;-45
2021/11/07 03:29:59;;;;;;;2.30;1.58;;;;;21.40;100488.00;;;;2078114;28;20456;-46
2021/11/07 03:32:08;;;;;;;2.20;2.00;;;;;21.40;100484.00;;;;2078175;28;20225;-45
2021/11/07 03:33:36;;;;;;;1.98;1.77;;;;;21.40;100486.00;;;;2077580;28;20288;-45
2021/11/07 03:34:44;;;;;;;2.28;1.70;;;;;21.40;100503.00;;;;2077722;28;20209;-47
2021/11/07 03:35:46;;;;;;;2.03;1.60;;;;;21.40;100497.00;;;;2076570;28;20217;-45
2021/11/07 03:36:49;;;;;;;2.05;1.83;;;;;21.40;100482.00;;;;2077968;28;20555;-46
2021/11/07 03:37:56;;;;;;;2.10;2.00;;;;;21.40;100488.00;;;;2078491;28;20218;-46
2021/11/07 03:38:56;;;;;;;2.22;2.03;;;;;21.40;100491.00;;;;2077486;28;20213;-46
2021/11/07 03:39:59;;;;;;;1.90;1.80;;;;;21.40;100490.00;;;;2078600;28;20226;-46
2021/11/07 03:40:59;;;;;;;2.00;1.90;;;;;21.40;100477.00;;;;2078154;28;20224;-46
2021/11/07 03:42:00;;;;;;;2.33;1.60;;;;;21.40;100470.00;;;;2077964;28;20324;-46
2021/11/07 03:43:00;;;;;;;2.93;2.00;;;;;21.40;100477.00;;;;2077828;28;20292;-45
2021/11/07 03:44:01;;;;;;;2.13;1.73;;;;;21.40;100470.00;;;;2077671;28;20456;-45
2021/11/07 03:45:01;;;;;;;1.60;1.50;;;;;21.40;100480.00;;;;2078869;28;20300;-45
2021/11/07 03:46:01;;;;;;;2.80;1.90;;;;;21.40;100470.00;;;;2078586;28;20263;-47
2021/11/07 03:47:02;;;;;;;1.77;1.67;;;;;21.40;100475.00;;;;2078732;28;20291;-45
2021/11/07 03:48:03;;;;;;;2.00;1.90;;;;;21.40;100470.00;;;;2078359;28;20751;-45
2021/11/07 03:49:04;;;;;;;1.83;1.43;;;;;21.40;100469.00;;;;2077873;28;20472;-46
2021/11/07 03:50:07;;;;;;;2.20;2.00;;;;;21.40;100469.00;;;;2078383;28;20236;-46
2021/11/07 03:51:11;;;;;;;2.20;2.00;;;;;21.40;100466.00;;;;2067725;28;20221;-45
2021/11/07 03:52:12;;;;;;;2.03;1.92;;;;;21.40;100472.00;;;;2069314;28;20699;-46
2021/11/07 03:53:12;;;;;;;2.43;2.10;;;;;21.40;100475.00;;;;2071720;28;20245;-45
2021/11/07 03:54:13;;;;;;;3.30;2.03;;;;;21.40;100452.00;;;;2071120;28;20623;-46
2021/11/07 03:55:14;;;;;;;1.70;1.60;;;;;21.40;100461.00;;;;2070539;28;20217;-46
2021/11/07 03:56:14;;;;;;;1.77;1.67;;;;;21.40;100457.00;;;;2070479;28;20225;-45
2021/11/07 03:57:15;;;;;;;2.03;1.83;;;;;21.40;100458.00;;;;2070203;28;21170;-45
2021/11/07 03:58:15;;;;;;;1.80;1.70;;;;;21.40;100451.00;;;;2070243;28;21068;-47
2021/11/07 03:59:15;;;;;;;2.43;1.73;;;;;21.40;100450.00;;;;2069540;28;20699;-46
2021/11/07 04:00:17;;;;;;;2.00;1.80;;;;;21.30;100458.00;;;;2067992;28;20225;-47
2021/11/07 04:01:18;;;;;;;2.70;1.92;;;;;21.30;100461.00;;;;2070351;28;20210;-45
2021/11/07 04:02:18;;;;;;;2.00;1.90;;;;;21.40;100464.00;;;;2076859;28;20209;-46
2021/11/07 04:03:19;;;;;;;2.00;1.80;;;;;21.30;100453.00;;;;2078444;28;20456;-45
2021/11/07 04:04:19;;;;;;;3.30;2.20;;;;;21.40;100449.00;;;;2078432;28;20577;-46
2021/11/07 04:05:21;;;;;;;2.33;2.03;;;;;21.30;100452.00;;;;2076228;28;20212;-46
2021/11/07 04:06:21;;;;;;;2.30;2.10;;;;;21.30;100444.00;;;;2078570;28;20206;-46
2021/11/07 04:07:21;;;;;;;2.10;1.90;;;;;21.30;100448.00;;;;2077831;28;20225;-44
2021/11/07 04:08:22;;;;;;;2.70;2.00;;;;;21.30;100446.00;;;;2077875;28;20573;-46
2021/11/07 04:09:22;;;;;;;2.03;1.93;;;;;21.30;100440.00;;;;2077518;28;20240;-46
2021/11/07 04:10:22;;;;;;;2.93;1.90;;;;;21.30;100459.00;;;;2078707;28;20201;-47
2021/11/07 04:11:23;;;;;;;1.67;1.57;;;;;21.30;100448.00;;;;2078692;28;20210;-45
2021/11/07 04:12:23;;;;;;;2.20;2.00;;;;;21.30;100444.00;;;;2078094;28;20276;-46
2021/11/07 04:13:24;;;;;;;2.20;2.00;;;;;21.30;100449.00;;;;2078728;28;20949;-45
2021/11/07 04:14:24;;;;;;;1.83;1.63;;;;;21.30;100456.00;;;;2078284;28;20562;-44
2021/11/07 04:15:25;;;;;;;1.83;1.73;;;;;21.30;100451.00;;;;2078511;28;20240;-46
2021/11/07 04:16:25;;;;;;;2.47;2.00;;;;;21.30;100449.00;;;;2078544;28;20213;-46
2021/11/07 04:17:26;;;;;;;2.03;1.83;;;;;21.30;100444.00;;;;2076191;28;20267;-46
2021/11/07 04:18:26;;;;;;;2.10;1.90;;;;;21.30;100447.00;;;;2078492;28;20796;-46
2021/11/07 04:19:26;;;;;;;2.27;2.10;;;;;21.30;100445.00;;;;2077602;28;20290;-46
2021/11/07 04:20:27;;;;;;;2.50;2.10;;;;;21.30;100441.00;;;;2078351;28;20213;-47
2021/11/07 04:21:27;;;;;;;1.97;1.87;;;;;21.30;100445.00;;;;2071044;28;20300;-44
2021/11/07 04:22:27;;;;;;;2.43;1.83;;;;;21.30;100437.00;;;;2071666;28;20648;-46
2021/11/07 04:23:28;;;;;;;2.80;2.50;;;;;21.30;100438.00;;;;2071092;28;20210;-45
2021/11/07 04:24:29;;;;;;;2.10;2.00;;;;;21.30;100450.00;;;;2070335;28;20225;-46
2021/11/07 04:25:30;;;;;;;2.10;1.95;;;;;21.30;100431.00;;;;2070079;28;20221;-45
2021/11/07 04:26:30;;;;;;;2.43;2.07;;;;;21.30;100428.00;;;;2069662;28;20627;-45
2021/11/07 04:27:31;;;;;;;2.27;2.10;;;;;21.30;100422.00;;;;2069265;28;20306;-47
2021/11/07 04:28:31;;;;;;;2.20;2.00;;;;;21.30;100427.00;;;;2070372;28;20218;-45
2021/11/07 04:29:32;;;;;;;2.10;2.00;;;;;21.30;100422.00;;;;2068544;28;20626;-46
2021/11/07 04:30:33;;;;;;;2.10;1.90;;;;;21.30;100431.00;;;;2071649;28;20265;-44
2021/11/07 04:31:33;;;;;;;2.90;2.38;;;;;21.30;100429.00;;;;2075797;28;20213;-46
2021/11/07 04:32:34;;;;;;;2.40;2.20;;;;;21.30;100421.00;;;;2079261;28;20290;-46
2021/11/07 04:33:34;;;;;;;2.40;2.20;;;;;21.30;100433.00;;;;2079383;28;20217;-45
2021/11/07 04:34:35;;;;;;;2.47;2.27;;;;;21.30;100426.00;;;;2079055;28;20213;-45
2021/11/07 04:35:36;;;;;;;4.80;2.13;;;;;21.30;100421.00;;;;2079131;28;20217;-47
2021/11/07 04:36:36;;;;;;;2.40;2.20;;;;;21.30;100419.00;;;;2079278;28;20213;-46
2021/11/07 04:37:38;;;;;;;2.90;2.47;;;;;21.30;100404.00;;;;2076076;28;20221;-45
2021/11/07 04:38:39;;;;;;;2.28;2.08;;;;;21.30;100409.00;;;;2070846;28;20222;-46
2021/11/07 04:39:39;;;;;;;2.33;2.07;;;;;21.20;100402.00;;;;2070375;28;20222;-45
2021/11/07 04:40:40;;;;;;;2.30;2.10;;;;;21.30;100413.00;;;;2071119;28;20214;-45
2021/11/07 04:41:41;;;;;;;2.23;2.03;;;;;21.10;100404.00;;;;2071740;28;20222;-45
2021/11/07 04:42:42;;;;;;;2.80;2.60;;;;;21.30;100401.00;;;;2071009;28;20222;-47
2021/11/07 04:43:43;;;;;;;1.92;1.83;;;;;21.30;100403.00;;;;2070797;28;20472;-47
2021/11/07 04:44:43;;;;;;;2.40;2.20;;;;;21.30;100400.00;;;;2070231;28;20592;-46
2021/11/07 04:45:44;;;;;;;2.10;1.90;;;;;21.30;100392.00;;;;2070856;28;20217;-45
2021/11/07 04:46:45;;;;;;;2.20;2.00;;;;;21.30;100405.00;;;;2071051;28;20225;-45
2021/11/07 04:47:45;;;;;;;2.17;1.97;;;;;21.20;100396.00;;;;2071388;28;20214;-48
2021/11/07 04:48:46;;;;;;;2.40;2.07;;;;;21.20;100396.00;;;;2070723;28;20695;-45
2021/11/07 04:49:47;;;;;;;2.63;2.13;;;;;21.20;100406.00;;;;2070985;28;20214;-46
2021/11/07 04:50:47;;;;;;;2.90;2.23;;;;;21.30;100405.00;;;;2071682;28;20453;-46
2021/11/07 04:51:48;;;;;;;2.13;1.93;;;;;21.20;100403.00;;;;2071646;28;20252;-47
2021/11/07 04:52:48;;;;;;;1.77;1.67;;;;;21.20;100395.00;;;;2073179;28;20552;-45
2021/11/07 04:53:48;;;;;;;2.40;2.20;;;;;21.20;100393.00;;;;2072069;28;20210;-48
2021/11/07 04:54:49;;;;;;;2.17;1.97;;;;;21.20;100383.00;;;;2071795;28;20210;-45
2021/11/07 04:55:49;;;;;;;2.97;2.07;;;;;21.20;100384.00;;;;2076973;28;20229;-46
2021/11/07 04:56:49;;;;;;;3.23;2.33;;;;;21.20;100385.00;;;;2076934;28;20297;-47
2021/11/07 04:57:50;;;;;;;2.47;2.27;;;;;21.20;100394.00;;;;2079782;28;20816;-46
2021/11/07 04:58:50;;;;;;;2.53;2.17;;;;;21.20;100385.00;;;;2079132;28;20267;-45
2021/11/07 04:59:51;;;;;;;2.90;2.13;;;;;21.20;100400.00;;;;2079657;28;20224;-45
2021/11/07 05:00:51;;;;;;;5.00;2.17;;;;;21.30;100393.00;;;;2079712;28;20210;-44
2021/11/07 05:01:51;;;;;;;2.20;2.00;;;;;21.20;100406.00;;;;2079813;28;20213;-45
2021/11/07 05:02:52;;;;;;;2.63;2.40;;;;;21.20;100407.00;;;;2079866;28;20217;-45
2021/11/07 05:03:52;;;;;;;2.70;2.17;;;;;21.20;100413.00;;;;2078833;28;20230;-45
2021/11/07 05:04:55;;;;;;;3.50;2.43;;;;;21.20;100403.00;;;;2079238;28;20213;-45
2021/11/07 05:05:56;;;;;;;2.25;2.00;;;;;21.20;100383.00;;;;2079319;28;20213;-47
2021/11/07 05:06:56;;;;;;;2.37;2.17;;;;;21.20;100389.00;;;;2078695;28;20751;-49
2021/11/07 05:07:57;;;;;;;2.33;2.13;;;;;21.20;100404.00;;;;2078439;28;20468;-47
2021/11/07 05:08:57;;;;;;;2.33;2.13;;;;;21.20;100386.00;;;;2078737;28;20209;-48
2021/11/07 05:09:57;;;;;;;2.50;2.30;;;;;21.20;100384.00;;;;2079192;28;20757;-47
2021/11/07 05:10:58;;;;;;;3.03;2.20;;;;;21.20;100375.00;;;;2079015;28;20567;-48
2021/11/07 05:11:58;;;;;;;2.30;2.10;;;;;21.20;100365.00;;;;2078993;28;20268;-48
2021/11/07 05:12:59;;;;;;;2.50;2.30;;;;;21.20;100365.00;;;;2078749;28;20296;-48
2021/11/07 05:13:59;;;;;;;2.33;2.13;;;;;21.20;100364.00;;;;2074381;28;20675;-51
2021/11/07 05:14:59;;;;;;;2.40;2.20;;;;;21.20;100376.00;;;;2070165;28;20210;-48
2021/11/07 05:16:00;;;;;;;2.40;1.80;;;;;21.20;100385.00;;;;2074432;28;20209;-47
2021/11/07 05:17:00;;;;;;;5.33;2.40;;;;;21.20;100381.00;;;;2071156;28;20206;-48
2021/11/07 05:18:02;;;;;;;2.37;2.17;;;;;21.20;100382.00;;;;2070111;28;20300;-48
2021/11/07 05:19:03;;;;;;;2.30;2.10;;;;;21.20;100378.00;;;;2069656;28;20211;-46
2021/11/07 05:20:04;;;;;;;2.35;2.15;;;;;21.20;100369.00;;;;2070908;28;20661;-46
2021/11/07 05:21:05;;;;;;;2.93;2.33;;;;;21.20;100369.00;;;;2067902;28;20226;-49
2021/11/07 05:22:05;;;;;;;2.40;2.20;;;;;21.20;100371.00;;;;2070952;28;20464;-51
2021/11/07 05:23:06;;;;;;;1.93;1.73;;;;;21.20;100371.00;;;;2073001;28;20206;-48
2021/11/07 05:24:06;;;;;;;3.30;2.67;;;;;21.20;100370.00;;;;2072904;28;20302;-48
2021/11/07 05:25:08;;;;;;;4.30;2.23;;;;;21.20;100377.00;;;;2071160;28;20240;-48
2021/11/07 05:26:09;;;;;;;2.90;2.60;;;;;21.20;100378.00;;;;2074163;28;20210;-48
2021/11/07 05:27:09;;;;;;;2.67;2.47;;;;;21.10;100367.00;;;;2070992;28;20206;-47
2021/11/07 05:28:10;;;;;;;2.17;2.07;;;;;21.20;100372.00;;;;2071137;28;20210;-47
2021/11/07 05:29:10;;;;;;;2.20;2.03;;;;;21.20;100370.00;;;;2070576;28;20210;-47
2021/11/07 05:30:12;;;;;;;2.17;1.97;;;;;21.20;100372.00;;;;2071493;28;20214;-47
2021/11/07 05:31:12;;;;;;;2.50;2.30;;;;;21.20;100367.00;;;;2062152;28;20210;-47
2021/11/07 05:32:13;;;;;;;2.40;2.20;;;;;21.10;100360.00;;;;2071444;28;20312;-47
2021/11/07 05:33:14;;;;;;;2.53;2.33;;;;;21.20;100357.00;;;;2071388;28;20206;-49
2021/11/07 05:34:14;;;;;;;2.47;2.25;;;;;21.20;100352.00;;;;2071206;28;20717;-49
2021/11/07 05:35:19;;;;;;;2.93;2.57;;;;;21.10;100367.00;;;;2071542;28;20228;-47
2021/11/07 05:36:20;;;;;;;2.10;2.00;;;;;21.20;100367.00;;;;2072755;28;20230;-48
2021/11/07 05:37:20;;;;;;;3.00;2.20;;;;;21.20;100370.00;;;;2074039;28;20250;-48
2021/11/07 05:38:21;;;;;;;4.70;2.43;;;;;21.20;100357.00;;;;2073318;28;20241;-48
2021/11/07 05:39:21;;;;;;;2.60;2.40;;;;;21.20;100372.00;;;;2078171;28;20217;-49
2021/11/07 05:40:22;;;;;;;2.77;2.57;;;;;21.20;100368.00;;;;2072254;28;20236;-49